sensor_id;sensor_type;location;lat;lon;timestamp;pressure;altitude;pressure_sealevel;temperature;humidity
79077;BME280;68477;42.698;23.342;2023-04-25T00:01:55;94658.03;;;10.74;84.32
79077;BME280;68477;42.698;23.342;2023-04-25T00:04:21;94650.91;;;10.68;84.61
79077;BME280;68477;42.698;23.342;2023-04-25T00:06:47;94646.50;;;10.75;84.24
79077;BME280;68477;42.698;23.342;2023-04-25T00:09:12;94641.94;;;10.62;86.07
79077;BME280;68477;42.698;23.342;2023-04-25T00:11:38;94635.31;;;10.66;85.12
79077;BME280;68477;42.698;23.342;2023-04-25T00:14:04;94622.91;;;10.60;86.04
79077;BME280;68477;42.698;23.342;2023-04-25T00:16:30;94612.19;;;10.62;84.91
79077;BME280;68477;42.698;23.342;2023-04-25T00:18:58;94607.22;;;10.67;85.70
79077;BME280;68477;42.698;23.342;2023-04-25T00:21:24;94601.88;;;10.60;84.28
79077;BME280;68477;42.698;23.342;2023-04-25T00:23:52;94594.78;;;10.61;85.46
79077;BME280;68477;42.698;23.342;2023-04-25T00:26:17;94605.81;;;10.71;84.15
79077;BME280;68477;42.698;23.342;2023-04-25T00:28:43;94612.09;;;10.70;83.33
79077;BME280;68477;42.698;23.342;2023-04-25T00:31:08;94608.22;;;10.66;83.08
79077;BME280;68477;42.698;23.342;2023-04-25T00:33:33;94601.19;;;10.73;82.60
79077;BME280;68477;42.698;23.342;2023-04-25T00:36:00;94602.16;;;10.93;82.54
79077;BME280;68477;42.698;23.342;2023-04-25T00:38:25;94594.75;;;11.03;81.00
79077;BME280;68477;42.698;23.342;2023-04-25T00:40:52;94602.09;;;10.87;81.42
79077;BME280;68477;42.698;23.342;2023-04-25T00:43:18;94599.09;;;10.90;81.06
79077;BME280;68477;42.698;23.342;2023-04-25T00:45:43;94594.88;;;10.95;81.35
79077;BME280;68477;42.698;23.342;2023-04-25T00:48:14;94597.00;;;10.78;81.59
79077;BME280;68477;42.698;23.342;2023-04-25T00:50:39;94598.13;;;10.97;81.57
79077;BME280;68477;42.698;23.342;2023-04-25T00:53:05;94604.38;;;10.90;80.37
79077;BME280;68477;42.698;23.342;2023-04-25T00:55:31;94614.59;;;11.06;81.20
79077;BME280;68477;42.698;23.342;2023-04-25T00:57:59;94615.28;;;11.15;81.36
79077;BME280;68477;42.698;23.342;2023-04-25T01:00:25;94602.94;;;11.15;80.79
79077;BME280;68477;42.698;23.342;2023-04-25T01:02:51;94605.91;;;11.05;82.09
79077;BME280;68477;42.698;23.342;2023-04-25T01:05:17;94607.59;;;11.13;81.76
79077;BME280;68477;42.698;23.342;2023-04-25T01:07:44;94603.94;;;11.14;80.91
79077;BME280;68477;42.698;23.342;2023-04-25T01:10:10;94582.19;;;10.99;82.16
79077;BME280;68477;42.698;23.342;2023-04-25T01:12:35;94580.50;;;10.91;83.44
79077;BME280;68477;42.698;23.342;2023-04-25T01:15:01;94579.16;;;11.02;83.13
79077;BME280;68477;42.698;23.342;2023-04-25T01:17:27;94578.28;;;10.95;82.41
79077;BME280;68477;42.698;23.342;2023-04-25T01:19:54;94568.25;;;11.05;82.38
79077;BME280;68477;42.698;23.342;2023-04-25T01:22:20;94573.63;;;10.97;82.14
79077;BME280;68477;42.698;23.342;2023-04-25T01:24:46;94561.03;;;10.64;83.99
79077;BME280;68477;42.698;23.342;2023-04-25T01:27:11;94555.31;;;10.54;84.38
79077;BME280;68477;42.698;23.342;2023-04-25T01:29:37;94556.78;;;10.63;83.63
79077;BME280;68477;42.698;23.342;2023-04-25T01:32:03;94562.59;;;10.80;82.89
79077;BME280;68477;42.698;23.342;2023-04-25T01:34:29;94559.47;;;10.98;82.61
79077;BME280;68477;42.698;23.342;2023-04-25T01:36:55;94559.34;;;10.78;81.72
79077;BME280;68477;42.698;23.342;2023-04-25T01:39:20;94564.75;;;10.48;83.16
79077;BME280;68477;42.698;23.342;2023-04-25T01:41:47;94561.91;;;10.71;82.11
79077;BME280;68477;42.698;23.342;2023-04-25T01:44:13;94567.56;;;10.47;83.42
79077;BME280;68477;42.698;23.342;2023-04-25T01:46:40;94561.81;;;10.58;83.25
79077;BME280;68477;42.698;23.342;2023-04-25T01:49:06;94564.56;;;10.50;83.44
79077;BME280;68477;42.698;23.342;2023-04-25T01:51:32;94568.16;;;10.42;83.26
79077;BME280;68477;42.698;23.342;2023-04-25T01:53:57;94570.59;;;10.44;83.17
79077;BME280;68477;42.698;23.342;2023-04-25T01:56:23;94575.88;;;10.50;82.88
79077;BME280;68477;42.698;23.342;2023-04-25T01:58:48;94570.41;;;10.45;83.20
79077;BME280;68477;42.698;23.342;2023-04-25T02:01:14;94565.88;;;10.61;82.82
79077;BME280;68477;42.698;23.342;2023-04-25T02:03:40;94560.56;;;10.33;83.17
79077;BME280;68477;42.698;23.342;2023-04-25T02:06:05;94571.75;;;10.41;83.52
79077;BME280;68477;42.698;23.342;2023-04-25T02:08:31;94579.16;;;10.31;83.48
79077;BME280;68477;42.698;23.342;2023-04-25T02:10:57;94572.63;;;10.48;82.25
79077;BME280;68477;42.698;23.342;2023-04-25T02:13:22;94559.38;;;10.57;82.07
79077;BME280;68477;42.698;23.342;2023-04-25T02:15:48;94565.31;;;10.44;82.21
79077;BME280;68477;42.698;23.342;2023-04-25T02:18:15;94555.94;;;10.56;81.90
79077;BME280;68477;42.698;23.342;2023-04-25T02:20:43;94550.72;;;10.63;82.00
79077;BME280;68477;42.698;23.342;2023-04-25T02:23:09;94541.81;;;10.64;81.43
79077;BME280;68477;42.698;23.342;2023-04-25T02:25:34;94530.78;;;10.47;82.30
79077;BME280;68477;42.698;23.342;2023-04-25T02:28:00;94535.50;;;10.58;81.72
79077;BME280;68477;42.698;23.342;2023-04-25T02:30:25;94533.19;;;10.48;82.54
79077;BME280;68477;42.698;23.342;2023-04-25T02:32:51;94537.13;;;10.59;81.83
79077;BME280;68477;42.698;23.342;2023-04-25T02:35:16;94528.13;;;10.47;81.43
79077;BME280;68477;42.698;23.342;2023-04-25T02:37:42;94521.81;;;10.20;82.68
79077;BME280;68477;42.698;23.342;2023-04-25T02:40:08;94515.91;;;9.97;84.44
79077;BME280;68477;42.698;23.342;2023-04-25T02:42:34;94519.78;;;10.01;84.32
79077;BME280;68477;42.698;23.342;2023-04-25T02:45:00;94522.34;;;9.94;84.12
79077;BME280;68477;42.698;23.342;2023-04-25T02:47:25;94525.28;;;10.06;83.35
79077;BME280;68477;42.698;23.342;2023-04-25T02:49:51;94520.59;;;10.01;83.35
79077;BME280;68477;42.698;23.342;2023-04-25T02:52:16;94509.94;;;9.67;84.62
79077;BME280;68477;42.698;23.342;2023-04-25T02:54:42;94519.47;;;9.89;83.85
79077;BME280;68477;42.698;23.342;2023-04-25T02:57:08;94519.47;;;9.89;83.29
79077;BME280;68477;42.698;23.342;2023-04-25T02:59:34;94513.66;;;9.93;83.71
79077;BME280;68477;42.698;23.342;2023-04-25T03:02:00;94512.97;;;10.06;83.09
79077;BME280;68477;42.698;23.342;2023-04-25T03:04:26;94516.34;;;10.00;83.62
79077;BME280;68477;42.698;23.342;2023-04-25T03:06:51;94521.53;;;10.15;82.90
79077;BME280;68477;42.698;23.342;2023-04-25T03:09:17;94512.66;;;9.58;84.92
79077;BME280;68477;42.698;23.342;2023-04-25T03:11:44;94507.31;;;9.67;86.12
79077;BME280;68477;42.698;23.342;2023-04-25T03:14:09;94507.06;;;9.47;86.01
79077;BME280;68477;42.698;23.342;2023-04-25T03:16:35;94498.56;;;9.81;84.45
79077;BME280;68477;42.698;23.342;2023-04-25T03:19:00;94507.53;;;9.86;84.47
79077;BME280;68477;42.698;23.342;2023-04-25T03:21:26;94509.66;;;9.98;83.75
79077;BME280;68477;42.698;23.342;2023-04-25T03:23:51;94506.06;;;9.48;84.52
79077;BME280;68477;42.698;23.342;2023-04-25T03:26:17;94505.41;;;9.60;84.54
79077;BME280;68477;42.698;23.342;2023-04-25T03:28:42;94503.56;;;9.76;84.19
79077;BME280;68477;42.698;23.342;2023-04-25T03:31:08;94496.38;;;9.63;84.56
79077;BME280;68477;42.698;23.342;2023-04-25T03:33:33;94492.06;;;9.77;85.31
79077;BME280;68477;42.698;23.342;2023-04-25T03:35:59;94499.31;;;9.75;86.00
79077;BME280;68477;42.698;23.342;2023-04-25T03:38:24;94500.94;;;9.76;84.84
79077;BME280;68477;42.698;23.342;2023-04-25T03:40:52;94504.56;;;9.96;83.63
79077;BME280;68477;42.698;23.342;2023-04-25T03:43:18;94499.00;;;9.84;85.06
79077;BME280;68477;42.698;23.342;2023-04-25T03:45:43;94504.09;;;9.86;85.43
79077;BME280;68477;42.698;23.342;2023-04-25T03:48:09;94502.19;;;9.80;85.18
79077;BME280;68477;42.698;23.342;2023-04-25T03:50:35;94501.63;;;9.84;85.22
79077;BME280;68477;42.698;23.342;2023-04-25T03:53:00;94505.25;;;9.83;84.81
79077;BME280;68477;42.698;23.342;2023-04-25T03:55:25;94496.66;;;9.89;84.85
79077;BME280;68477;42.698;23.342;2023-04-25T03:57:51;94494.22;;;9.88;84.41
79077;BME280;68477;42.698;23.342;2023-04-25T04:00:16;94499.28;;;9.89;84.67
79077;BME280;68477;42.698;23.342;2023-04-25T04:02:42;94506.97;;;10.12;83.71
79077;BME280;68477;42.698;23.342;2023-04-25T04:05:07;94512.84;;;9.93;84.90
79077;BME280;68477;42.698;23.342;2023-04-25T04:07:33;94515.91;;;10.18;84.01
79077;BME280;68477;42.698;23.342;2023-04-25T04:10:01;94515.53;;;10.00;84.40
79077;BME280;68477;42.698;23.342;2023-04-25T04:12:27;94524.72;;;10.25;84.41
79077;BME280;68477;42.698;23.342;2023-04-25T04:14:52;94506.03;;;10.20;83.92
79077;BME280;68477;42.698;23.342;2023-04-25T04:17:18;94515.75;;;10.19;85.25
79077;BME280;68477;42.698;23.342;2023-04-25T04:19:43;94513.09;;;9.98;84.25
79077;BME280;68477;42.698;23.342;2023-04-25T04:22:09;94513.41;;;10.10;85.19
79077;BME280;68477;42.698;23.342;2023-04-25T04:24:35;94512.41;;;10.11;86.11
79077;BME280;68477;42.698;23.342;2023-04-25T04:27:00;94516.28;;;10.15;85.96
79077;BME280;68477;42.698;23.342;2023-04-25T04:29:25;94516.69;;;10.33;84.45
79077;BME280;68477;42.698;23.342;2023-04-25T04:31:51;94516.09;;;10.16;84.29
79077;BME280;68477;42.698;23.342;2023-04-25T04:34:17;94513.78;;;10.07;84.12
79077;BME280;68477;42.698;23.342;2023-04-25T04:36:47;94508.56;;;10.28;85.27
79077;BME280;68477;42.698;23.342;2023-04-25T04:39:13;94506.72;;;10.29;84.48
79077;BME280;68477;42.698;23.342;2023-04-25T04:41:39;94503.16;;;10.58;83.84
79077;BME280;68477;42.698;23.342;2023-04-25T04:44:05;94508.91;;;10.68;84.00
79077;BME280;68477;42.698;23.342;2023-04-25T04:46:32;94506.25;;;10.68;82.95
79077;BME280;68477;42.698;23.342;2023-04-25T04:49:04;94515.47;;;10.57;84.22
79077;BME280;68477;42.698;23.342;2023-04-25T04:51:30;94523.19;;;10.59;83.66
79077;BME280;68477;42.698;23.342;2023-04-25T04:53:56;94529.22;;;10.81;82.79
79077;BME280;68477;42.698;23.342;2023-04-25T04:56:24;94523.19;;;10.59;84.10
79077;BME280;68477;42.698;23.342;2023-04-25T04:58:50;94526.91;;;10.71;84.19
79077;BME280;68477;42.698;23.342;2023-04-25T05:01:16;94522.56;;;10.85;82.53
79077;BME280;68477;42.698;23.342;2023-04-25T05:03:41;94535.28;;;10.81;83.09
79077;BME280;68477;42.698;23.342;2023-04-25T05:06:07;94531.22;;;10.78;82.78
79077;BME280;68477;42.698;23.342;2023-04-25T05:08:34;94529.63;;;10.84;82.34
79077;BME280;68477;42.698;23.342;2023-04-25T05:10:59;94549.06;;;10.83;82.55
79077;BME280;68477;42.698;23.342;2023-04-25T05:13:24;94547.34;;;10.97;82.74
79077;BME280;68477;42.698;23.342;2023-04-25T05:15:51;94547.59;;;11.02;81.07
79077;BME280;68477;42.698;23.342;2023-04-25T05:18:17;94546.00;;;10.79;82.46
79077;BME280;68477;42.698;23.342;2023-04-25T05:20:42;94545.94;;;10.73;83.77
79077;BME280;68477;42.698;23.342;2023-04-25T05:23:08;94547.47;;;10.39;84.90
79077;BME280;68477;42.698;23.342;2023-04-25T05:25:33;94540.41;;;10.40;86.01
79077;BME280;68477;42.698;23.342;2023-04-25T05:27:59;94542.63;;;10.64;85.11
79077;BME280;68477;42.698;23.342;2023-04-25T05:30:24;94540.31;;;10.76;83.60
79077;BME280;68477;42.698;23.342;2023-04-25T05:32:50;94541.56;;;10.80;83.76
79077;BME280;68477;42.698;23.342;2023-04-25T05:35:15;94544.56;;;10.77;83.67
79077;BME280;68477;42.698;23.342;2023-04-25T05:37:41;94540.88;;;10.71;82.72
79077;BME280;68477;42.698;23.342;2023-04-25T05:40:07;94541.66;;;10.65;83.06
79077;BME280;68477;42.698;23.342;2023-04-25T05:42:32;94535.81;;;10.70;82.99
79077;BME280;68477;42.698;23.342;2023-04-25T05:44:58;94535.00;;;10.69;84.46
79077;BME280;68477;42.698;23.342;2023-04-25T05:47:23;94534.50;;;10.87;83.29
79077;BME280;68477;42.698;23.342;2023-04-25T05:49:49;94539.22;;;10.92;82.16
79077;BME280;68477;42.698;23.342;2023-04-25T05:52:14;94538.25;;;10.71;83.44
79077;BME280;68477;42.698;23.342;2023-04-25T05:54:40;94540.75;;;10.79;83.13
79077;BME280;68477;42.698;23.342;2023-04-25T05:57:06;94544.22;;;10.87;83.29
79077;BME280;68477;42.698;23.342;2023-04-25T05:59:31;94545.91;;;10.94;82.60
79077;BME280;68477;42.698;23.342;2023-04-25T06:01:57;94540.03;;;10.92;80.95
79077;BME280;68477;42.698;23.342;2023-04-25T06:04:22;94532.59;;;11.02;81.07
79077;BME280;68477;42.698;23.342;2023-04-25T06:06:48;94535.25;;;11.02;81.55
79077;BME280;68477;42.698;23.342;2023-04-25T06:09:13;94536.38;;;11.21;81.99
79077;BME280;68477;42.698;23.342;2023-04-25T06:11:39;94533.44;;;11.09;80.32
79077;BME280;68477;42.698;23.342;2023-04-25T06:14:05;94542.53;;;11.35;79.21
79077;BME280;68477;42.698;23.342;2023-04-25T06:16:31;94545.56;;;11.38;78.94
79077;BME280;68477;42.698;23.342;2023-04-25T06:18:56;94539.44;;;11.31;79.10
79077;BME280;68477;42.698;23.342;2023-04-25T06:21:23;94542.59;;;11.48;81.09
79077;BME280;68477;42.698;23.342;2023-04-25T06:23:49;94548.81;;;11.41;79.29
79077;BME280;68477;42.698;23.342;2023-04-25T06:26:14;94542.75;;;11.40;78.90
79077;BME280;68477;42.698;23.342;2023-04-25T06:28:40;94551.44;;;11.34;79.40
79077;BME280;68477;42.698;23.342;2023-04-25T06:31:06;94553.28;;;11.40;77.76
79077;BME280;68477;42.698;23.342;2023-04-25T06:33:32;94552.47;;;11.40;80.09
79077;BME280;68477;42.698;23.342;2023-04-25T06:35:57;94546.69;;;11.57;78.36
79077;BME280;68477;42.698;23.342;2023-04-25T06:38:23;94551.78;;;11.65;76.33
79077;BME280;68477;42.698;23.342;2023-04-25T06:40:48;94551.34;;;12.10;77.93
79077;BME280;68477;42.698;23.342;2023-04-25T06:43:13;94554.47;;;12.27;76.94
79077;BME280;68477;42.698;23.342;2023-04-25T06:45:39;94556.72;;;12.49;75.82
79077;BME280;68477;42.698;23.342;2023-04-25T06:48:05;94555.50;;;12.45;75.16
79077;BME280;68477;42.698;23.342;2023-04-25T06:50:30;94550.81;;;12.34;73.14
79077;BME280;68477;42.698;23.342;2023-04-25T06:52:56;94558.31;;;12.44;72.04
79077;BME280;68477;42.698;23.342;2023-04-25T06:55:21;94562.19;;;12.54;74.17
79077;BME280;68477;42.698;23.342;2023-04-25T06:57:47;94556.13;;;12.47;71.65
79077;BME280;68477;42.698;23.342;2023-04-25T07:00:13;94554.47;;;12.40;73.55
79077;BME280;68477;42.698;23.342;2023-04-25T07:02:38;94555.91;;;12.49;73.03
79077;BME280;68477;42.698;23.342;2023-04-25T07:05:04;94550.41;;;12.37;75.81
79077;BME280;68477;42.698;23.342;2023-04-25T07:07:30;94550.00;;;12.34;75.10
79077;BME280;68477;42.698;23.342;2023-04-25T07:09:56;94559.56;;;12.48;76.11
79077;BME280;68477;42.698;23.342;2023-04-25T07:12:21;94553.50;;;12.61;75.03
79077;BME280;68477;42.698;23.342;2023-04-25T07:14:47;94554.72;;;12.58;73.25
79077;BME280;68477;42.698;23.342;2023-04-25T07:17:12;94550.03;;;12.53;74.17
79077;BME280;68477;42.698;23.342;2023-04-25T07:19:37;94558.97;;;12.59;74.88
79077;BME280;68477;42.698;23.342;2023-04-25T07:22:05;94547.19;;;12.88;71.48
79077;BME280;68477;42.698;23.342;2023-04-25T07:24:30;94543.75;;;12.68;73.16
79077;BME280;68477;42.698;23.342;2023-04-25T07:26:56;94548.59;;;12.51;73.44
79077;BME280;68477;42.698;23.342;2023-04-25T07:29:21;94553.47;;;12.47;75.30
79077;BME280;68477;42.698;23.342;2023-04-25T07:31:47;94542.94;;;12.61;72.37
79077;BME280;68477;42.698;23.342;2023-04-25T07:34:13;94544.34;;;12.63;72.53
79077;BME280;68477;42.698;23.342;2023-04-25T07:36:38;94551.25;;;12.77;72.33
79077;BME280;68477;42.698;23.342;2023-04-25T07:39:03;94539.28;;;12.95;71.42
79077;BME280;68477;42.698;23.342;2023-04-25T07:41:29;94539.69;;;13.05;70.97
79077;BME280;68477;42.698;23.342;2023-04-25T07:43:55;94542.13;;;13.20;71.52
79077;BME280;68477;42.698;23.342;2023-04-25T07:46:20;94541.81;;;13.67;68.10
79077;BME280;68477;42.698;23.342;2023-04-25T07:48:46;94536.31;;;13.69;69.59
79077;BME280;68477;42.698;23.342;2023-04-25T07:51:11;94533.13;;;13.47;68.30
79077;BME280;68477;42.698;23.342;2023-04-25T07:53:36;94528.47;;;13.49;68.66
79077;BME280;68477;42.698;23.342;2023-04-25T07:56:03;94532.13;;;13.42;69.26
79077;BME280;68477;42.698;23.342;2023-04-25T07:58:28;94530.47;;;13.54;68.94
79077;BME280;68477;42.698;23.342;2023-04-25T08:00:54;94524.91;;;13.68;67.22
79077;BME280;68477;42.698;23.342;2023-04-25T08:03:20;94526.59;;;13.63;68.12
79077;BME280;68477;42.698;23.342;2023-04-25T08:05:46;94534.72;;;13.55;66.95
79077;BME280;68477;42.698;23.342;2023-04-25T08:08:11;94528.84;;;13.59;67.92
79077;BME280;68477;42.698;23.342;2023-04-25T08:10:37;94522.25;;;13.75;67.45
79077;BME280;68477;42.698;23.342;2023-04-25T08:13:03;94519.53;;;14.33;67.04
79077;BME280;68477;42.698;23.342;2023-04-25T08:15:28;94529.41;;;14.51;65.95
79077;BME280;68477;42.698;23.342;2023-04-25T08:17:54;94521.38;;;14.64;61.92
79077;BME280;68477;42.698;23.342;2023-04-25T08:20:20;94513.50;;;15.07;61.15
79077;BME280;68477;42.698;23.342;2023-04-25T08:22:45;94500.44;;;15.31;64.84
79077;BME280;68477;42.698;23.342;2023-04-25T08:25:10;94507.16;;;15.27;63.03
79077;BME280;68477;42.698;23.342;2023-04-25T08:27:36;94502.66;;;15.89;62.31
79077;BME280;68477;42.698;23.342;2023-04-25T08:30:03;94510.75;;;16.24;58.86
79077;BME280;68477;42.698;23.342;2023-04-25T08:32:29;94504.28;;;16.20;58.92
79077;BME280;68477;42.698;23.342;2023-04-25T08:34:54;94499.28;;;15.63;61.24
79077;BME280;68477;42.698;23.342;2023-04-25T08:37:20;94505.34;;;15.46;61.79
79077;BME280;68477;42.698;23.342;2023-04-25T08:39:46;94515.13;;;15.27;61.58
79077;BME280;68477;42.698;23.342;2023-04-25T08:42:14;94529.03;;;15.22;64.29
79077;BME280;68477;42.698;23.342;2023-04-25T08:44:40;94526.69;;;14.89;67.65
79077;BME280;68477;42.698;23.342;2023-04-25T08:47:05;94535.72;;;15.06;67.74
79077;BME280;68477;42.698;23.342;2023-04-25T08:49:34;94532.31;;;14.74;67.90
79077;BME280;68477;42.698;23.342;2023-04-25T08:52:01;94528.44;;;14.70;67.54
79077;BME280;68477;42.698;23.342;2023-04-25T08:54:28;94524.09;;;14.19;71.91
79077;BME280;68477;42.698;23.342;2023-04-25T08:56:54;94518.19;;;14.80;67.24
79077;BME280;68477;42.698;23.342;2023-04-25T08:59:21;94516.41;;;14.99;68.90
79077;BME280;68477;42.698;23.342;2023-04-25T09:01:51;94516.91;;;15.33;67.34
79077;BME280;68477;42.698;23.342;2023-04-25T09:04:18;94502.72;;;15.02;63.79
79077;BME280;68477;42.698;23.342;2023-04-25T09:06:46;94498.09;;;14.98;66.28
79077;BME280;68477;42.698;23.342;2023-04-25T09:09:11;94502.59;;;14.72;66.52
79077;BME280;68477;42.698;23.342;2023-04-25T09:11:38;94500.56;;;14.68;68.81
79077;BME280;68477;42.698;23.342;2023-04-25T09:14:20;94496.47;;;14.47;68.57
79077;BME280;68477;42.698;23.342;2023-04-25T09:16:59;94497.69;;;14.94;66.55
79077;BME280;68477;42.698;23.342;2023-04-25T09:19:27;94488.84;;;15.25;67.45
79077;BME280;68477;42.698;23.342;2023-04-25T09:21:54;94488.66;;;15.45;61.49
79077;BME280;68477;42.698;23.342;2023-04-25T09:24:43;94482.41;;;15.76;61.36
79077;BME280;68477;42.698;23.342;2023-04-25T09:27:12;94482.63;;;16.05;61.28
79077;BME280;68477;42.698;23.342;2023-04-25T09:29:43;94481.03;;;15.85;63.12
79077;BME280;68477;42.698;23.342;2023-04-25T09:32:12;94480.03;;;15.86;61.71
79077;BME280;68477;42.698;23.342;2023-04-25T09:34:42;94482.22;;;15.89;61.50
79077;BME280;68477;42.698;23.342;2023-04-25T09:37:11;94478.56;;;15.72;59.42
79077;BME280;68477;42.698;23.342;2023-04-25T09:39:38;94481.78;;;16.22;59.44
79077;BME280;68477;42.698;23.342;2023-04-25T09:42:04;94475.81;;;16.39;56.89
79077;BME280;68477;42.698;23.342;2023-04-25T09:44:30;94470.31;;;16.64;55.79
79077;BME280;68477;42.698;23.342;2023-04-25T09:46:56;94466.34;;;16.73;57.10
79077;BME280;68477;42.698;23.342;2023-04-25T09:49:22;94470.31;;;16.52;58.36
79077;BME280;68477;42.698;23.342;2023-04-25T09:51:58;94476.16;;;16.96;54.74
79077;BME280;68477;42.698;23.342;2023-04-25T09:54:24;94482.13;;;17.73;52.84
79077;BME280;68477;42.698;23.342;2023-04-25T09:56:52;94481.56;;;17.99;52.87
79077;BME280;68477;42.698;23.342;2023-04-25T09:59:20;94481.16;;;18.19;52.13
79077;BME280;68477;42.698;23.342;2023-04-25T10:01:48;94487.59;;;18.07;53.65
79077;BME280;68477;42.698;23.342;2023-04-25T10:04:25;94475.59;;;17.92;55.24
79077;BME280;68477;42.698;23.342;2023-04-25T10:06:55;94483.88;;;18.36;55.49
79077;BME280;68477;42.698;23.342;2023-04-25T10:09:21;94486.13;;;18.73;51.71
79077;BME280;68477;42.698;23.342;2023-04-25T10:11:50;94479.56;;;18.18;53.24
79077;BME280;68477;42.698;23.342;2023-04-25T10:14:16;94469.06;;;17.71;53.35
79077;BME280;68477;42.698;23.342;2023-04-25T10:16:42;94466.88;;;17.68;52.46
79077;BME280;68477;42.698;23.342;2023-04-25T10:19:09;94472.47;;;17.20;55.06
79077;BME280;68477;42.698;23.342;2023-04-25T10:21:48;94476.72;;;16.86;56.24
79077;BME280;68477;42.698;23.342;2023-04-25T10:24:15;94491.69;;;16.15;58.88
79077;BME280;68477;42.698;23.342;2023-04-25T10:26:40;94460.97;;;15.23;56.56
79077;BME280;68477;42.698;23.342;2023-04-25T10:29:06;94475.69;;;15.73;62.34
79077;BME280;68477;42.698;23.342;2023-04-25T10:31:31;94470.84;;;15.70;59.11
79077;BME280;68477;42.698;23.342;2023-04-25T10:33:57;94463.38;;;16.51;63.69
79077;BME280;68477;42.698;23.342;2023-04-25T10:36:24;94470.25;;;17.40;58.28
79077;BME280;68477;42.698;23.342;2023-04-25T10:38:52;94492.53;;;16.27;56.28
79077;BME280;68477;42.698;23.342;2023-04-25T10:41:21;94496.44;;;15.95;55.50
79077;BME280;68477;42.698;23.342;2023-04-25T10:43:49;94482.75;;;15.98;56.70
79077;BME280;68477;42.698;23.342;2023-04-25T10:46:19;94481.53;;;16.12;55.38
79077;BME280;68477;42.698;23.342;2023-04-25T10:48:52;94480.28;;;16.26;57.82
79077;BME280;68477;42.698;23.342;2023-04-25T10:58:01;94466.25;;;17.90;55.68
79077;BME280;68477;42.698;23.342;2023-04-25T11:00:27;94467.91;;;17.79;51.00
79077;BME280;68477;42.698;23.342;2023-04-25T11:02:58;94460.72;;;18.08;53.95
79077;BME280;68477;42.698;23.342;2023-04-25T11:05:32;94465.00;;;18.54;52.38
79077;BME280;68477;42.698;23.342;2023-04-25T11:07:58;94455.53;;;18.92;51.06
79077;BME280;68477;42.698;23.342;2023-04-25T11:10:31;94453.16;;;19.12;47.33
79077;BME280;68477;42.698;23.342;2023-04-25T11:12:58;94456.09;;;19.33;48.53
79077;BME280;68477;42.698;23.342;2023-04-25T11:15:25;94444.56;;;19.27;48.21
79077;BME280;68477;42.698;23.342;2023-04-25T11:17:53;94443.72;;;19.82;49.26
79077;BME280;68477;42.698;23.342;2023-04-25T11:20:19;94440.03;;;19.66;47.72
79077;BME280;68477;42.698;23.342;2023-04-25T11:22:45;94440.19;;;18.82;47.46
79077;BME280;68477;42.698;23.342;2023-04-25T11:25:13;94444.69;;;18.65;46.83
79077;BME280;68477;42.698;23.342;2023-04-25T11:27:52;94449.31;;;18.24;46.12
79077;BME280;68477;42.698;23.342;2023-04-25T11:30:19;94436.38;;;17.88;47.52
79077;BME280;68477;42.698;23.342;2023-04-25T11:32:45;94436.34;;;17.71;48.27
79077;BME280;68477;42.698;23.342;2023-04-25T11:35:11;94446.75;;;17.61;47.57
79077;BME280;68477;42.698;23.342;2023-04-25T11:37:41;94445.19;;;17.36;46.61
79077;BME280;68477;42.698;23.342;2023-04-25T11:40:07;94451.34;;;17.13;46.48
79077;BME280;68477;42.698;23.342;2023-04-25T11:42:36;94458.75;;;16.88;47.43
79077;BME280;68477;42.698;23.342;2023-04-25T11:45:03;94452.72;;;16.69;50.63
79077;BME280;68477;42.698;23.342;2023-04-25T11:47:30;94459.81;;;16.45;50.17
79077;BME280;68477;42.698;23.342;2023-04-25T11:50:06;94462.25;;;16.17;56.24
79077;BME280;68477;42.698;23.342;2023-04-25T11:52:46;94457.50;;;16.07;49.99
79077;BME280;68477;42.698;23.342;2023-04-25T11:55:16;94441.50;;;15.84;52.71
79077;BME280;68477;42.698;23.342;2023-04-25T11:57:45;94438.88;;;15.95;53.59
79077;BME280;68477;42.698;23.342;2023-04-25T12:00:13;94450.78;;;16.88;49.32
79077;BME280;68477;42.698;23.342;2023-04-25T12:02:40;94444.03;;;17.32;48.09
79077;BME280;68477;42.698;23.342;2023-04-25T12:05:07;94439.59;;;17.50;50.01
79077;BME280;68477;42.698;23.342;2023-04-25T12:07:36;94433.19;;;18.31;45.87
79077;BME280;68477;42.698;23.342;2023-04-25T12:10:10;94430.13;;;17.94;45.64
79077;BME280;68477;42.698;23.342;2023-04-25T12:12:38;94436.44;;;18.04;43.49
79077;BME280;68477;42.698;23.342;2023-04-25T12:15:23;94436.16;;;17.89;44.76
79077;BME280;68477;42.698;23.342;2023-04-25T12:17:50;94439.31;;;17.34;45.03
79077;BME280;68477;42.698;23.342;2023-04-25T12:20:18;94435.84;;;17.34;44.21
79077;BME280;68477;42.698;23.342;2023-04-25T12:22:45;94425.97;;;17.58;47.09
79077;BME280;68477;42.698;23.342;2023-04-25T12:25:43;94432.38;;;17.33;46.75
79077;BME280;68477;42.698;23.342;2023-04-25T12:28:16;94424.31;;;16.93;45.52
79077;BME280;68477;42.698;23.342;2023-04-25T12:33:29;94481.75;;;16.64;47.23
79077;BME280;68477;42.698;23.342;2023-04-25T12:35:54;94490.50;;;16.11;55.47
79077;BME280;68477;42.698;23.342;2023-04-25T12:38:22;94497.34;;;14.91;62.22
79077;BME280;68477;42.698;23.342;2023-04-25T12:40:48;94501.94;;;14.52;66.99
79077;BME280;68477;42.698;23.342;2023-04-25T12:43:13;94498.84;;;14.55;67.07
79077;BME280;68477;42.698;23.342;2023-04-25T12:45:39;94503.31;;;14.23;66.76
79077;BME280;68477;42.698;23.342;2023-04-25T12:48:05;94498.09;;;13.72;69.23
79077;BME280;68477;42.698;23.342;2023-04-25T12:50:30;94504.56;;;13.76;69.83
79077;BME280;68477;42.698;23.342;2023-04-25T12:52:56;94509.19;;;13.93;69.00
79077;BME280;68477;42.698;23.342;2023-04-25T12:55:21;94514.34;;;13.75;67.88
79077;BME280;68477;42.698;23.342;2023-04-25T12:57:47;94502.84;;;13.50;70.25